Time;durP1;ratioP1;P1;durP2;ratioP2;P2;SDS_P1;SDS_P2;PMS_P1;PMS_P2;Temp;Humidity;BMP_temperature;BMP_pressure;BME280_temperature;BME280_humidity;BME280_pressure;Samples;Min_cycle;Max_cycle;Signal;HPM_P1;HPM_P2
2021/04/09 00:01:57;;;;;;;21.43;9.60;;;;;;;2.62;71.34;100752.05;147532;1146;104553;-70
2021/04/09 00:05:00;;;;;;;22.30;9.60;;;;;;;2.66;71.28;100753.55;147659;1147;104485;-71
2021/04/09 00:08:04;;;;;;;19.65;9.53;;;;;;;2.69;70.90;100763.05;147623;1146;104656;-69
2021/04/09 00:11:07;;;;;;;54.17;24.53;;;;;;;2.66;69.67;100764.09;147645;1147;104592;-74
2021/04/09 00:14:12;;;;;;;26.63;11.23;;;;;;;2.65;70.39;100767.66;147618;1147;104538;-72
2021/04/09 00:17:15;;;;;;;20.93;9.77;;;;;;;2.58;70.98;100766.34;147637;1148;104473;-73
2021/04/09 00:20:21;;;;;;;19.15;9.35;;;;;;;2.52;70.37;100770.17;147680;1147;104590;-69
2021/04/09 00:23:24;;;;;;;22.40;9.98;;;;;;;2.46;70.07;100764.39;147698;1146;104719;-71
2021/04/09 00:26:28;;;;;;;20.10;9.23;;;;;;;2.41;70.92;100766.47;147655;1146;104487;-69
2021/04/09 00:29:31;;;;;;;19.40;8.30;;;;;;;2.35;69.71;100772.93;147057;1147;104455;-70
2021/04/09 00:32:34;;;;;;;22.05;9.55;;;;;;;2.29;70.17;100766.23;147490;1147;104577;-70
2021/04/09 00:35:37;;;;;;;16.27;7.27;;;;;;;2.24;70.46;100757.73;147560;1146;104534;-73
2021/04/09 00:38:41;;;;;;;20.00;8.73;;;;;;;2.22;69.96;100775.40;147677;1147;104607;-73
2021/04/09 00:41:44;;;;;;;18.52;9.00;;;;;;;2.25;69.95;100764.70;147740;1147;104523;-71
2021/04/09 00:44:48;;;;;;;14.18;7.08;;;;;;;2.31;70.10;100764.35;147745;1147;104544;-70
2021/04/09 00:47:51;;;;;;;15.72;8.45;;;;;;;2.32;70.67;100765.19;147699;1147;104455;-71
2021/04/09 00:50:55;;;;;;;17.98;8.23;;;;;;;2.32;70.62;100771.30;147682;1148;104585;-69
2021/04/09 00:53:59;;;;;;;13.83;7.62;;;;;;;2.31;70.70;100764.35;147585;1147;104564;-69
2021/04/09 00:57:04;;;;;;;18.32;8.13;;;;;;;2.31;69.32;100769.62;147427;1146;104544;-70
2021/04/09 01:00:11;;;;;;;16.90;8.38;;;;;;;2.28;70.41;100764.52;147734;1148;104451;-70
2021/04/09 01:03:14;;;;;;;18.00;8.20;;;;;;;2.23;70.22;100768.34;147664;1147;104490;-70
2021/04/09 01:06:17;;;;;;;15.73;7.60;;;;;;;2.18;70.55;100773.88;147477;1147;104565;-70
2021/04/09 01:09:20;;;;;;;20.43;10.43;;;;;;;2.12;70.41;100774.23;147632;1146;104614;-71
2021/04/09 01:12:24;;;;;;;19.10;9.63;;;;;;;2.07;70.40;100776.27;147731;1148;104500;-71
2021/04/09 01:15:27;;;;;;;17.82;8.85;;;;;;;2.01;69.47;100773.98;147730;1147;104500;-71
2021/04/09 01:18:37;;;;;;;17.87;7.80;;;;;;;1.94;69.50;100781.34;147673;1147;104996;-71
2021/04/09 01:21:47;;;;;;;18.32;7.80;;;;;;;1.85;70.52;100793.25;147739;1147;104918;-72
2021/04/09 01:25:21;;;;;;;18.07;7.85;;;;;;;1.77;69.77;100771.74;147739;1147;104601;-74
2021/04/09 01:28:28;;;;;;;17.95;8.38;;;;;;;1.75;70.13;100776.23;147758;1147;104947;-72
2021/04/09 01:31:52;;;;;;;19.25;8.65;;;;;;;1.71;70.56;100774.71;147711;1147;104545;-72
2021/04/09 01:35:01;;;;;;;18.97;9.30;;;;;;;1.72;70.72;100771.16;147703;1147;104528;-73
2021/04/09 01:38:06;;;;;;;18.53;8.57;;;;;;;1.78;70.32;100769.98;147740;1147;104542;-72
2021/04/09 01:41:11;;;;;;;18.73;8.80;;;;;;;1.83;70.16;100768.80;147722;1147;104595;-70
2021/04/09 01:44:16;;;;;;;18.37;9.00;;;;;;;1.85;70.06;100772.19;147764;1146;104470;-72
2021/04/09 01:47:25;;;;;;;19.30;9.18;;;;;;;1.84;69.98;100765.22;147294;1147;104503;-71
2021/04/09 01:50:31;;;;;;;23.23;10.07;;;;;;;1.82;70.25;100760.98;147685;1147;104601;-72
2021/04/09 01:53:34;;;;;;;21.03;9.87;;;;;;;1.79;70.13;100762.02;147776;1147;104486;-70
2021/04/09 01:56:38;;;;;;;19.70;8.93;;;;;;;1.73;70.50;100752.67;147753;1145;104627;-72
2021/04/09 01:59:42;;;;;;;20.40;9.38;;;;;;;1.70;70.30;100760.72;147426;1146;104547;-71
2021/04/09 02:02:48;;;;;;;19.37;9.40;;;;;;;1.68;70.66;100759.11;147419;1146;104528;-70
2021/04/09 02:05:56;;;;;;;20.20;8.83;;;;;;;1.63;70.10;100756.72;147727;1147;104524;-71
2021/04/09 02:09:00;;;;;;;20.65;10.05;;;;;;;1.58;70.43;100764.03;147712;1147;104535;-75
2021/04/09 02:12:05;;;;;;;20.25;9.28;;;;;;;1.60;70.88;100756.03;147762;1147;104534;-71
2021/04/09 02:15:14;;;;;;;16.52;8.08;;;;;;;1.62;70.74;100765.55;147771;1147;104452;-75
2021/04/09 02:18:17;;;;;;;20.10;9.13;;;;;;;1.63;70.31;100761.14;147221;1147;104552;-71
2021/04/09 02:21:21;;;;;;;17.35;8.93;;;;;;;1.62;70.23;100754.16;147565;1147;104553;-71
2021/04/09 02:24:24;;;;;;;20.57;8.95;;;;;;;1.58;70.00;100756.14;147761;1147;104547;-72
2021/04/09 02:27:27;;;;;;;18.07;8.90;;;;;;;1.53;70.50;100760.79;147472;1146;104614;-67
2021/04/09 02:30:31;;;;;;;16.00;7.65;;;;;;;1.48;70.81;100762.80;147312;1147;104696;-75
2021/04/09 02:33:36;;;;;;;19.23;9.15;;;;;;;1.42;70.40;100769.23;147698;1147;104503;-71
2021/04/09 02:36:42;;;;;;;20.45;8.78;;;;;;;1.40;71.10;100772.89;147736;1147;104586;-72
2021/04/09 02:39:48;;;;;;;16.85;8.58;;;;;;;1.35;70.11;100773.99;147661;1147;104550;-73
2021/04/09 02:42:52;;;;;;;18.87;8.53;;;;;;;1.30;70.38;100762.86;147261;1147;104625;-70
2021/04/09 02:45:57;;;;;;;17.45;8.48;;;;;;;1.28;70.67;100761.25;147629;1147;104866;-70
2021/04/09 02:49:07;;;;;;;17.15;8.65;;;;;;;1.26;70.60;100760.48;147340;1146;104525;-72
2021/04/09 02:52:17;;;;;;;17.17;7.62;;;;;;;1.23;70.66;100768.52;147326;1147;105033;-71
2021/04/09 02:55:22;;;;;;;17.10;8.68;;;;;;;1.21;70.18;100765.13;147297;1147;104555;-72
2021/04/09 02:58:27;;;;;;;20.77;9.15;;;;;;;1.19;70.52;100767.83;147801;1148;104648;-73
2021/04/09 03:01:32;;;;;;;19.53;8.77;;;;;;;1.17;70.84;100760.05;147773;1147;104558;-71
2021/04/09 03:04:36;;;;;;;19.82;8.93;;;;;;;1.18;70.54;100766.14;147731;1147;104474;-72
2021/04/09 03:07:41;;;;;;;19.32;9.10;;;;;;;1.16;70.56;100755.70;147528;1147;104566;-72
2021/04/09 03:10:44;;;;;;;21.87;9.05;;;;;;;1.16;70.53;100766.22;147532;1148;104546;-73
2021/04/09 03:13:48;;;;;;;18.55;9.45;;;;;;;1.13;70.30;100761.11;147826;1147;104569;-72
2021/04/09 03:16:57;;;;;;;25.45;9.98;;;;;;;1.12;70.55;100762.05;147820;1147;104486;-71
2021/04/09 03:20:01;;;;;;;21.70;9.97;;;;;;;1.11;70.78;100760.34;147814;1147;104489;-70
2021/04/09 03:23:06;;;;;;;20.40;8.43;;;;;;;1.16;70.58;100763.59;147562;1147;104549;-68
2021/04/09 03:26:10;;;;;;;22.20;9.50;;;;;;;1.16;70.48;100753.08;151797;1152;102131;-69
2021/04/09 03:29:13;;;;;;;20.60;9.23;;;;;;;1.18;70.82;100756.47;151017;1148;103664;-71
2021/04/09 03:32:16;;;;;;;19.30;8.95;;;;;;;1.20;71.06;100745.88;147849;1147;104661;-75
2021/04/09 03:35:20;;;;;;;19.92;8.78;;;;;;;1.18;70.30;100753.00;147718;1147;104476;-70
2021/04/09 03:38:23;;;;;;;17.75;8.75;;;;;;;1.14;70.74;100754.94;147735;1147;104548;-71
2021/04/09 03:41:26;;;;;;;19.80;8.60;;;;;;;1.13;70.67;100753.22;147667;1147;104627;-71
2021/04/09 03:44:29;;;;;;;18.00;8.38;;;;;;;1.09;70.66;100746.44;147324;1147;104560;-71
2021/04/09 03:47:33;;;;;;;17.98;8.65;;;;;;;1.06;70.72;100743.98;147538;1147;104516;-74
2021/04/09 03:50:36;;;;;;;56.65;30.55;;;;;;;1.00;70.96;100741.65;147270;1147;104540;-73
2021/04/09 03:53:41;;;;;;;23.87;11.30;;;;;;;1.00;70.83;100743.44;147559;1147;104460;-73
2021/04/09 03:56:45;;;;;;;17.53;8.77;;;;;;;0.94;71.25;100731.47;147733;1147;104473;-71
2021/04/09 03:59:48;;;;;;;19.12;9.23;;;;;;;0.95;70.75;100735.81;147749;1147;104626;-71
2021/04/09 04:02:52;;;;;;;17.70;8.38;;;;;;;0.93;70.68;100730.62;147738;1147;104459;-72
2021/04/09 04:05:55;;;;;;;109.20;58.63;;;;;;;0.93;70.69;100727.16;147690;1147;104519;-71
2021/04/09 04:08:58;;;;;;;53.43;23.57;;;;;;;0.96;71.16;100729.61;147687;1148;104515;-71
2021/04/09 04:12:01;;;;;;;26.62;14.45;;;;;;;0.98;70.92;100720.73;147740;1147;104492;-75
2021/04/09 04:15:07;;;;;;;20.27;9.65;;;;;;;0.99;70.94;100721.58;147570;1147;104553;-72
2021/04/09 04:18:10;;;;;;;19.67;10.68;;;;;;;1.01;70.54;100717.09;147722;1147;104588;-71
2021/04/09 04:21:14;;;;;;;24.25;11.30;;;;;;;1.03;71.21;100709.97;147455;1147;104479;-72
2021/04/09 04:24:17;;;;;;;22.60;10.30;;;;;;;1.07;70.79;100715.92;147724;1147;104549;-70
2021/04/09 04:27:20;;;;;;;19.50;9.45;;;;;;;1.13;71.03;100726.94;147345;1147;104546;-69
2021/04/09 04:30:24;;;;;;;21.20;11.93;;;;;;;1.24;71.28;100722.91;147614;1147;104611;-71
2021/04/09 04:33:28;;;;;;;22.63;11.00;;;;;;;1.37;71.44;100734.47;147677;1148;104492;-73
2021/04/09 04:36:31;;;;;;;22.60;10.93;;;;;;;1.48;71.17;100734.75;147596;1147;104547;-71
2021/04/09 04:39:34;;;;;;;23.27;10.70;;;;;;;1.58;71.19;100732.47;147788;1147;104535;-70
2021/04/09 04:42:37;;;;;;;23.87;11.40;;;;;;;1.73;71.40;100741.27;147671;1147;104550;-71
2021/04/09 04:45:41;;;;;;;19.17;9.53;;;;;;;1.91;70.38;100742.90;147823;1147;104592;-70
2021/04/09 04:48:44;;;;;;;19.77;11.08;;;;;;;2.09;70.56;100743.64;147426;1147;104459;-70
2021/04/09 04:51:48;;;;;;;20.72;11.25;;;;;;;2.25;71.73;100738.37;147454;1146;104477;-73
2021/04/09 04:54:51;;;;;;;22.83;11.90;;;;;;;2.36;70.99;100735.95;147444;1147;104471;-71
2021/04/09 04:57:54;;;;;;;20.57;11.40;;;;;;;2.48;70.31;100739.69;147444;1146;104530;-72
2021/04/09 05:00:57;;;;;;;20.40;11.35;;;;;;;2.53;70.07;100737.61;147346;1146;104662;-73
2021/04/09 05:04:00;;;;;;;32.78;20.10;;;;;;;2.58;70.74;100745.26;147367;1147;104599;-73
2021/04/09 05:07:03;;;;;;;22.45;11.83;;;;;;;2.59;69.83;100752.20;147384;1147;104472;-73
2021/04/09 05:10:08;;;;;;;23.40;12.55;;;;;;;2.62;69.99;100741.50;147736;1147;104580;-72
2021/04/09 05:13:11;;;;;;;94.58;39.30;;;;;;;2.65;70.04;100741.30;147747;1147;104553;-72
2021/04/09 05:16:15;;;;;;;118.03;65.10;;;;;;;2.73;70.22;100738.22;147719;1147;104575;-73
2021/04/09 05:19:18;;;;;;;36.40;21.10;;;;;;;2.84;70.43;100734.95;147767;1147;104456;-72
2021/04/09 05:22:21;;;;;;;43.75;27.02;;;;;;;2.89;71.01;100739.02;147735;1147;104492;-74
2021/04/09 05:25:24;;;;;;;37.23;25.27;;;;;;;2.91;69.48;100737.13;147746;1147;104556;-72
2021/04/09 05:28:28;;;;;;;25.75;16.15;;;;;;;2.88;69.50;100742.58;147773;1147;104459;-71
2021/04/09 05:31:34;;;;;;;23.40;12.60;;;;;;;2.88;70.11;100731.19;147696;1147;104575;-74
2021/04/09 05:34:37;;;;;;;26.70;13.63;;;;;;;2.89;70.84;100743.45;147599;1147;104580;-72
2021/04/09 05:37:40;;;;;;;23.83;11.60;;;;;;;2.89;70.01;100731.11;147468;1147;104455;-71
2021/04/09 05:40:44;;;;;;;27.10;15.08;;;;;;;2.91;69.58;100731.86;147664;1147;104538;-75
2021/04/09 05:43:47;;;;;;;23.65;12.10;;;;;;;3.00;70.02;100729.60;147223;1147;104458;-70
2021/04/09 05:46:50;;;;;;;21.17;10.15;;;;;;;3.10;70.01;100736.88;147690;1147;104550;-73
2021/04/09 05:49:53;;;;;;;126.45;67.35;;;;;;;3.23;69.01;100733.47;147655;1148;104671;-73
2021/04/09 05:52:57;;;;;;;23.92;12.55;;;;;;;3.28;69.28;100734.05;147751;1148;104487;-71
2021/04/09 05:56:00;;;;;;;30.30;15.53;;;;;;;3.33;70.55;100730.19;147727;1146;104550;-73
2021/04/09 05:59:03;;;;;;;41.20;24.67;;;;;;;3.41;70.37;100727.08;147719;1147;104463;-71
2021/04/09 06:02:06;;;;;;;30.52;14.95;;;;;;;3.46;68.73;100730.25;147368;1146;104614;-69
2021/04/09 06:05:11;;;;;;;59.10;27.60;;;;;;;3.53;70.29;100728.94;147681;1147;104476;-72
2021/04/09 06:08:14;;;;;;;115.60;62.93;;;;;;;3.55;69.58;100726.20;147639;1147;104872;-71
2021/04/09 06:11:18;;;;;;;331.17;163.92;;;;;;;3.58;69.13;100726.03;147561;1147;105683;-70
2021/04/09 06:14:21;;;;;;;164.22;75.65;;;;;;;3.56;69.32;100724.41;147583;1146;104451;-72
2021/04/09 06:17:24;;;;;;;40.83;19.87;;;;;;;3.57;68.39;100718.20;147581;1147;104866;-68
2021/04/09 06:20:27;;;;;;;45.03;30.02;;;;;;;3.58;69.12;100715.47;147428;1147;104455;-67
2021/04/09 06:23:30;;;;;;;65.03;35.87;;;;;;;3.62;68.55;100716.09;147577;1146;104552;-69
2021/04/09 06:26:34;;;;;;;42.05;20.48;;;;;;;3.63;68.49;100723.92;147552;1148;104473;-71
2021/04/09 06:29:38;;;;;;;47.83;31.15;;;;;;;3.71;69.69;100726.08;147647;1147;104500;-72
2021/04/09 06:32:41;;;;;;;289.97;193.57;;;;;;;3.82;68.55;100714.84;147557;1147;104479;-72
2021/04/09 06:35:44;;;;;;;243.75;118.13;;;;;;;3.97;69.18;100713.02;147239;1148;104531;-74
2021/04/09 06:38:47;;;;;;;184.52;109.80;;;;;;;4.13;68.64;100718.98;147613;1147;104535;-70
2021/04/09 06:41:51;;;;;;;154.38;94.90;;;;;;;4.27;67.59;100712.79;147573;1148;104898;-70
2021/04/09 06:44:54;;;;;;;44.73;25.10;;;;;;;4.34;68.93;100714.08;147650;1147;104455;-69
2021/04/09 06:47:58;;;;;;;28.38;15.83;;;;;;;4.35;67.64;100712.28;147595;1146;104614;-70
2021/04/09 06:51:02;;;;;;;37.85;21.25;;;;;;;4.36;68.31;100712.19;147691;1147;104432;-70
2021/04/09 06:54:10;;;;;;;23.95;13.00;;;;;;;4.42;67.39;100710.94;147574;1147;104508;-69
2021/04/09 06:57:14;;;;;;;21.90;11.93;;;;;;;4.44;67.75;100709.03;147434;1147;104449;-65
2021/04/09 07:00:21;;;;;;;107.25;53.38;;;;;;;4.48;68.26;100692.02;147593;1147;104546;-66
2021/04/09 07:03:24;;;;;;;130.67;66.90;;;;;;;4.50;67.55;100698.05;147605;1147;104612;-68
2021/04/09 07:06:30;;;;;;;146.82;73.87;;;;;;;4.55;67.74;100690.66;147625;1148;104542;-69
2021/04/09 07:09:34;;;;;;;69.30;33.95;;;;;;;4.63;68.10;100696.27;147569;1147;104449;-69
2021/04/09 07:12:37;;;;;;;210.55;91.70;;;;;;;4.71;67.97;100687.81;147582;1147;104546;-67
2021/04/09 07:15:42;;;;;;;202.07;88.58;;;;;;;4.77;67.18;100684.75;147405;1147;104455;-70
2021/04/09 07:18:51;;;;;;;127.05;71.42;;;;;;;4.84;66.75;100679.91;147519;1147;104859;-69
2021/04/09 07:22:02;;;;;;;49.08;26.68;;;;;;;4.89;67.50;100678.64;147680;1147;104630;-70
2021/04/09 07:25:12;;;;;;;32.30;17.13;;;;;;;4.97;67.70;100675.46;147719;1147;104473;-69
2021/04/09 07:28:17;;;;;;;35.43;23.02;;;;;;;5.10;66.44;100678.11;147108;1147;104468;-69
2021/04/09 07:31:29;;;;;;;61.48;44.00;;;;;;;5.20;66.92;100679.14;147262;1147;104449;-70
2021/04/09 07:34:51;;;;;;;38.80;23.80;;;;;;;5.32;66.42;100677.42;147436;1146;104589;-69
2021/04/09 07:37:56;;;;;;;25.08;14.60;;;;;;;5.40;66.41;100671.59;147648;1147;104550;-69
2021/04/09 07:41:02;;;;;;;33.40;18.98;;;;;;;5.46;65.48;100671.98;147341;1148;104553;-69
2021/04/09 07:44:16;;;;;;;59.70;37.40;;;;;;;5.47;65.90;100668.39;147585;1147;104465;-69
2021/04/09 07:47:20;;;;;;;39.38;26.30;;;;;;;5.53;65.53;100667.11;147689;1147;104538;-69
2021/04/09 07:50:34;;;;;;;38.78;21.27;;;;;;;5.57;64.57;100665.92;147705;1147;104535;-69
2021/04/09 07:53:44;;;;;;;27.27;14.78;;;;;;;5.60;65.50;100656.91;147489;1146;104915;-70
2021/04/09 07:56:49;;;;;;;60.23;32.45;;;;;;;5.68;66.16;100649.27;147342;1147;104934;-69
2021/04/09 07:59:52;;;;;;;71.07;34.25;;;;;;;5.75;62.59;100639.91;147284;1147;104531;-69
2021/04/09 08:02:57;;;;;;;46.77;29.97;;;;;;;5.84;63.66;100639.23;147414;1147;104956;-70
2021/04/09 08:06:11;;;;;;;25.50;15.77;;;;;;;5.93;65.08;100632.42;147621;1148;104577;-71
2021/04/09 08:09:14;;;;;;;28.17;16.23;;;;;;;6.01;64.17;100619.48;147663;1147;104550;-68
2021/04/09 08:12:28;;;;;;;35.38;19.32;;;;;;;6.12;64.39;100609.87;147500;1147;104512;-70
2021/04/09 08:15:34;;;;;;;67.78;39.95;;;;;;;6.22;64.30;100616.19;147553;1147;104546;-69
2021/04/09 08:18:37;;;;;;;53.87;32.63;;;;;;;6.34;61.21;100612.59;147296;1147;104521;-69
2021/04/09 08:21:42;;;;;;;19.82;11.73;;;;;;;6.44;61.79;100602.13;147123;1148;105125;-71
2021/04/09 08:24:46;;;;;;;26.93;17.65;;;;;;;6.52;62.32;100602.38;147269;1148;104594;-69
2021/04/09 08:27:49;;;;;;;32.33;20.55;;;;;;;6.60;60.87;100596.47;147453;1146;104465;-68
2021/04/09 08:30:53;;;;;;;29.82;18.95;;;;;;;6.68;62.77;100600.23;147639;1147;104476;-72
2021/04/09 08:33:57;;;;;;;46.10;30.07;;;;;;;6.76;62.51;100590.84;147278;1147;104473;-68
2021/04/09 08:37:00;;;;;;;40.33;26.68;;;;;;;6.88;60.96;100588.05;147136;1146;104545;-70
2021/04/09 08:40:05;;;;;;;33.20;19.35;;;;;;;7.01;61.39;100582.63;147396;1147;104550;-71
2021/04/09 08:43:09;;;;;;;30.40;18.70;;;;;;;7.15;62.29;100588.64;147623;1146;104548;-69
2021/04/09 08:46:13;;;;;;;17.55;10.60;;;;;;;7.19;59.00;100582.95;147626;1146;104454;-69
2021/04/09 08:49:17;;;;;;;19.57;12.40;;;;;;;7.19;58.65;100574.16;147583;1147;104470;-71
2021/04/09 08:52:21;;;;;;;23.17;15.13;;;;;;;7.17;59.62;100581.40;147621;1147;104521;-69
2021/04/09 08:55:39;;;;;;;14.83;9.63;;;;;;;7.20;60.41;100582.00;147720;1148;104476;-70
2021/04/09 08:58:47;;;;;;;14.87;8.80;;;;;;;7.26;57.59;100570.05;147433;1147;104500;-69
2021/04/09 09:02:14;;;;;;;14.87;8.90;;;;;;;7.35;59.24;100558.70;147628;1147;104461;-69
2021/04/09 09:05:20;;;;;;;13.55;8.53;;;;;;;7.48;58.71;100562.00;147638;1147;104473;-69
2021/04/09 09:08:23;;;;;;;15.13;9.08;;;;;;;7.60;59.16;100541.59;147624;1147;104622;-71
2021/04/09 09:11:54;;;;;;;12.58;8.35;;;;;;;7.78;59.32;100543.69;147616;1147;104511;-69
2021/04/09 09:14:57;;;;;;;15.03;8.03;;;;;;;7.92;58.68;100540.70;147590;1147;104486;-69
2021/04/09 09:18:00;;;;;;;13.80;7.77;;;;;;;8.11;54.55;100547.14;147489;1147;104476;-69
2021/04/09 09:21:09;;;;;;;11.22;6.45;;;;;;;8.23;56.18;100533.62;147556;1147;104486;-70
2021/04/09 09:24:29;;;;;;;11.97;6.97;;;;;;;8.30;56.68;100533.95;147362;1147;104620;-69
2021/04/09 09:27:47;;;;;;;26.68;14.38;;;;;;;8.33;56.48;100520.38;147591;1148;104526;-70
2021/04/09 09:30:55;;;;;;;15.40;8.90;;;;;;;8.37;55.96;100518.30;147558;1147;104412;-69
2021/04/09 09:34:45;;;;;;;24.80;15.25;;;;;;;8.41;54.69;100514.41;147641;1146;104457;-69
2021/04/09 09:37:48;;;;;;;14.37;9.20;;;;;;;8.44;55.08;100524.81;147660;1147;104559;-74
2021/04/09 09:40:52;;;;;;;12.53;9.35;;;;;;;8.47;53.48;100515.72;147732;1147;104533;-69
2021/04/09 09:43:56;;;;;;;10.03;6.60;;;;;;;8.49;55.21;100511.98;147415;1147;104449;-69
2021/04/09 09:47:01;;;;;;;11.43;6.80;;;;;;;8.49;53.64;100508.45;147595;1146;104457;-70
2021/04/09 09:50:20;;;;;;;10.23;6.43;;;;;;;8.51;56.25;100510.02;147447;1147;104435;-67
2021/04/09 09:53:23;;;;;;;14.47;8.83;;;;;;;8.54;54.18;100501.76;147344;1147;104473;-71
2021/04/09 09:56:30;;;;;;;10.85;7.05;;;;;;;8.59;52.46;100498.72;147408;1147;104547;-70
2021/04/09 09:59:34;;;;;;;11.12;7.75;;;;;;;8.65;51.90;100493.69;147672;1147;104547;-72
2021/04/09 10:02:37;;;;;;;9.10;6.30;;;;;;;8.71;55.17;100502.11;147684;1146;104496;-70
2021/04/09 10:05:42;;;;;;;17.95;11.55;;;;;;;8.80;52.57;100480.02;147309;1147;104594;-67
2021/04/09 10:08:45;;;;;;;19.65;9.53;;;;;;;8.92;53.95;100476.26;147164;1147;104502;-69
2021/04/09 10:11:49;;;;;;;19.20;12.55;;;;;;;9.00;53.74;100465.76;147147;1147;104540;-69
2021/04/09 10:14:52;;;;;;;21.85;14.38;;;;;;;9.11;53.84;100461.31;147642;1147;104492;-70
2021/04/09 10:18:06;;;;;;;14.50;8.65;;;;;;;9.17;53.01;100464.24;147648;1147;104604;-69
2021/04/09 10:21:12;;;;;;;10.90;6.90;;;;;;;9.23;54.20;100457.52;147612;1147;104512;-69
2021/04/09 10:24:17;;;;;;;15.75;10.28;;;;;;;9.32;52.38;100466.52;147621;1147;104464;-69
2021/04/09 10:27:20;;;;;;;10.50;7.03;;;;;;;9.38;52.03;100455.30;147634;1147;104542;-69
2021/04/09 10:30:28;;;;;;;13.20;8.50;;;;;;;9.42;50.84;100454.86;147675;1147;104530;-70
2021/04/09 10:33:40;;;;;;;11.77;7.53;;;;;;;9.47;51.96;100454.45;147736;1147;104516;-70
2021/04/09 10:36:45;;;;;;;9.45;6.20;;;;;;;9.46;51.84;100450.09;147674;1147;104543;-69
2021/04/09 10:39:49;;;;;;;17.65;11.70;;;;;;;9.44;53.11;100446.73;147307;1148;104464;-70
2021/04/09 10:43:02;;;;;;;10.65;6.75;;;;;;;9.47;50.71;100454.45;147525;1147;104608;-72
2021/04/09 10:46:10;;;;;;;12.28;8.55;;;;;;;9.49;52.00;100446.30;147480;1146;104523;-69
2021/04/09 10:49:16;;;;;;;9.23;6.10;;;;;;;9.54;51.88;100439.56;147703;1147;104543;-70
2021/04/09 10:52:20;;;;;;;11.93;6.87;;;;;;;9.63;52.07;100440.55;147432;1148;104575;-70
2021/04/09 10:55:31;;;;;;;9.08;6.08;;;;;;;9.73;50.47;100430.70;147563;1147;104428;-70
2021/04/09 10:58:35;;;;;;;10.85;6.67;;;;;;;9.80;49.61;100415.83;147652;1147;104454;-69
2021/04/09 11:01:41;;;;;;;8.38;5.40;;;;;;;9.87;50.02;100417.91;147682;1147;104517;-69
2021/04/09 11:04:51;;;;;;;17.40;12.28;;;;;;;9.89;49.97;100416.81;147709;1147;104445;-70
2021/04/09 11:07:55;;;;;;;9.03;6.22;;;;;;;9.97;50.04;100410.75;147560;1147;104533;-71
2021/04/09 11:11:04;;;;;;;11.75;7.47;;;;;;;10.04;50.34;100411.83;147174;1147;104459;-70
2021/04/09 11:14:12;;;;;;;15.10;9.88;;;;;;;10.00;50.53;100403.27;147440;1147;104455;-71
2021/04/09 11:17:26;;;;;;;9.60;5.67;;;;;;;10.01;47.51;100404.14;147280;1146;104553;-70
2021/04/09 11:20:32;;;;;;;16.50;10.98;;;;;;;10.05;49.49;100389.53;147671;1147;104467;-70
2021/04/09 11:23:40;;;;;;;12.57;7.23;;;;;;;10.16;49.54;100397.34;147397;1147;104543;-71
2021/04/09 11:26:44;;;;;;;13.45;7.25;;;;;;;10.27;49.17;100382.13;147686;1147;105036;-70
2021/04/09 11:29:48;;;;;;;7.60;5.10;;;;;;;10.29;49.52;100388.16;147287;1147;104583;-70
2021/04/09 11:32:52;;;;;;;6.30;4.50;;;;;;;10.36;49.38;100386.61;147482;1147;104466;-69
2021/04/09 11:35:56;;;;;;;7.40;5.60;;;;;;;10.41;49.06;100385.18;147678;1147;104435;-71
2021/04/09 11:39:13;;;;;;;7.47;4.90;;;;;;;10.40;49.12;100386.16;147596;1148;104477;-71
2021/04/09 11:42:28;;;;;;;8.87;4.77;;;;;;;10.38;49.45;100373.97;147621;1148;104549;-70
2021/04/09 11:45:43;;;;;;;8.25;5.28;;;;;;;10.36;49.17;100365.27;147595;1147;104710;-71
2021/04/09 11:49:00;;;;;;;7.80;5.30;;;;;;;10.32;48.84;100359.39;147358;1147;104542;-69
2021/04/09 11:52:06;;;;;;;6.83;4.92;;;;;;;10.32;49.03;100359.39;147670;1147;104931;-71
2021/04/09 11:55:15;;;;;;;7.60;5.00;;;;;;;10.34;48.10;100356.59;147626;1148;104472;-71
2021/04/09 11:58:20;;;;;;;6.87;4.90;;;;;;;10.40;47.96;100350.65;147651;1147;104447;-70
2021/04/09 12:01:27;;;;;;;6.73;5.07;;;;;;;10.53;49.59;100345.79;147635;1147;104618;-69
2021/04/09 12:04:35;;;;;;;6.40;4.65;;;;;;;10.72;49.15;100331.48;147691;1147;104458;-72
2021/04/09 12:07:38;;;;;;;10.05;6.78;;;;;;;10.87;46.37;100328.25;147399;1147;104849;-70
2021/04/09 12:10:42;;;;;;;7.30;5.37;;;;;;;10.88;46.93;100338.79;147555;1148;104463;-71
2021/04/09 12:13:46;;;;;;;7.70;5.67;;;;;;;10.94;44.80;100335.50;147685;1146;104595;-69
2021/04/09 12:16:50;;;;;;;6.65;4.55;;;;;;;11.04;46.17;100331.91;147610;1147;104523;-69
2021/04/09 12:19:55;;;;;;;7.35;5.15;;;;;;;11.10;47.00;100325.95;147618;1147;104409;-69
2021/04/09 12:22:58;;;;;;;7.53;5.20;;;;;;;11.12;47.82;100318.63;147596;1147;104844;-70
2021/04/09 12:26:01;;;;;;;7.53;5.40;;;;;;;11.15;47.27;100310.31;147522;1147;104886;-70
2021/04/09 12:29:04;;;;;;;6.53;4.83;;;;;;;11.17;48.44;100314.49;147542;1147;104499;-71
2021/04/09 12:32:08;;;;;;;7.08;5.22;;;;;;;11.20;47.39;100306.18;147529;1147;104725;-72
2021/04/09 12:35:14;;;;;;;9.20;5.40;;;;;;;11.16;46.24;100304.82;147687;1147;104458;-70
2021/04/09 12:38:17;;;;;;;9.25;5.30;;;;;;;11.13;48.02;100305.12;147303;1147;104542;-70
2021/04/09 12:41:20;;;;;;;7.03;5.00;;;;;;;11.15;47.25;100288.95;147338;1147;104457;-70
2021/04/09 12:44:24;;;;;;;8.23;5.58;;;;;;;11.19;47.39;100291.13;147156;1147;106079;-70
2021/04/09 12:47:27;;;;;;;13.65;5.78;;;;;;;11.24;46.18;100279.14;147244;1147;104652;-71
2021/04/09 12:50:30;;;;;;;6.85;4.85;;;;;;;11.32;47.59;100287.23;147525;1146;104485;-71
2021/04/09 12:53:34;;;;;;;10.18;5.85;;;;;;;11.35;46.88;100287.73;147610;1147;104574;-70
2021/04/09 12:56:37;;;;;;;8.75;5.90;;;;;;;11.36;43.11;100278.73;147236;1147;104504;-67
2021/04/09 12:59:41;;;;;;;9.40;5.78;;;;;;;11.36;46.14;100281.41;147174;1147;104489;-71
2021/04/09 13:02:44;;;;;;;7.55;5.17;;;;;;;11.35;44.96;100276.21;147305;1146;104617;-71
2021/04/09 13:05:47;;;;;;;7.72;5.30;;;;;;;11.37;46.79;100279.56;147606;1146;104476;-71
2021/04/09 13:08:51;;;;;;;7.85;5.62;;;;;;;11.37;46.18;100272.41;147571;1146;104581;-72
2021/04/09 13:11:54;;;;;;;8.53;5.30;;;;;;;11.43;46.66;100262.06;147384;1145;104507;-71
2021/04/09 13:14:57;;;;;;;8.40;5.30;;;;;;;11.46;46.31;100269.77;147476;1147;104548;-70
2021/04/09 13:18:01;;;;;;;9.37;4.87;;;;;;;11.43;44.69;100268.23;147445;1147;104611;-71
2021/04/09 13:21:06;;;;;;;7.08;5.50;;;;;;;11.43;46.53;100259.39;147566;1147;104603;-70
2021/04/09 13:24:11;;;;;;;9.95;5.80;;;;;;;11.46;43.73;100249.23;147668;1147;104534;-70
2021/04/09 13:27:15;;;;;;;9.08;5.80;;;;;;;11.45;45.57;100254.72;147236;1146;104543;-69
2021/04/09 13:30:21;;;;;;;8.05;5.30;;;;;;;11.44;44.11;100237.03;147538;1147;104471;-70
2021/04/09 13:33:26;;;;;;;7.47;5.25;;;;;;;11.38;44.16;100235.83;147539;1147;104489;-71
2021/04/09 13:36:29;;;;;;;7.92;5.40;;;;;;;11.34;45.58;100237.98;147765;1147;104518;-70
2021/04/09 13:39:32;;;;;;;7.62;5.45;;;;;;;11.35;43.77;100234.30;147404;1146;104470;-70
2021/04/09 13:42:36;;;;;;;8.28;5.42;;;;;;;11.33;44.86;100236.30;147558;1147;104476;-70
2021/04/09 13:45:39;;;;;;;8.53;5.53;;;;;;;11.38;45.99;100227.81;147555;1146;104460;-70
2021/04/09 13:48:44;;;;;;;7.75;5.15;;;;;;;11.40;43.94;100213.30;147386;1147;104620;-70
2021/04/09 13:51:47;;;;;;;6.17;4.80;;;;;;;11.40;45.43;100210.63;147641;1147;104479;-70
2021/04/09 13:54:50;;;;;;;7.40;4.97;;;;;;;11.42;43.54;100201.62;147556;1147;104580;-70
2021/04/09 13:57:53;;;;;;;8.67;5.13;;;;;;;11.43;44.71;100203.28;147362;1146;104536;-71